sensor_id;sensor_type;location;lat;lon;timestamp;P1;durP1;ratioP1;P2;durP2;ratioP2
549;SDS011;20066;48.764;9.176;2022-10-04T00:02:20;14.52;;;8.77;;
549;SDS011;20066;48.764;9.176;2022-10-04T00:04:54;19.40;;;9.90;;
549;SDS011;20066;48.764;9.176;2022-10-04T00:07:29;16.85;;;9.48;;
549;SDS011;20066;48.764;9.176;2022-10-04T00:10:00;19.60;;;9.65;;
549;SDS011;20066;48.764;9.176;2022-10-04T00:12:34;14.30;;;9.10;;
549;SDS011;20066;48.764;9.176;2022-10-04T00:15:05;19.35;;;10.18;;
549;SDS011;20066;48.764;9.176;2022-10-04T00:17:44;14.60;;;8.93;;
549;SDS011;20066;48.764;9.176;2022-10-04T00:23:24;17.58;;;9.30;;
549;SDS011;20066;48.764;9.176;2022-10-04T00:25:55;17.65;;;9.20;;
549;SDS011;20066;48.764;9.176;2022-10-04T00:28:42;20.80;;;9.85;;
549;SDS011;20066;48.764;9.176;2022-10-04T00:31:13;22.17;;;9.77;;
549;SDS011;20066;48.764;9.176;2022-10-04T00:33:43;20.70;;;10.90;;
549;SDS011;20066;48.764;9.176;2022-10-04T00:39:15;21.33;;;10.85;;
549;SDS011;20066;48.764;9.176;2022-10-04T00:44:53;17.38;;;8.73;;
549;SDS011;20066;48.764;9.176;2022-10-04T00:47:25;13.75;;;9.90;;
549;SDS011;20066;48.764;9.176;2022-10-04T00:49:59;18.80;;;9.35;;
549;SDS011;20066;48.764;9.176;2022-10-04T00:52:33;15.15;;;9.73;;
549;SDS011;20066;48.764;9.176;2022-10-04T00:55:04;17.55;;;10.15;;
549;SDS011;20066;48.764;9.176;2022-10-04T00:57:37;17.42;;;10.10;;
549;SDS011;20066;48.764;9.176;2022-10-04T01:00:11;19.45;;;10.20;;
549;SDS011;20066;48.764;9.176;2022-10-04T01:02:45;19.65;;;10.30;;
549;SDS011;20066;48.764;9.176;2022-10-04T01:05:18;22.15;;;9.73;;
549;SDS011;20066;48.764;9.176;2022-10-04T01:07:50;17.73;;;9.68;;
549;SDS011;20066;48.764;9.176;2022-10-04T01:10:24;26.05;;;10.30;;
549;SDS011;20066;48.764;9.176;2022-10-04T01:12:56;16.20;;;9.57;;
549;SDS011;20066;48.764;9.176;2022-10-04T01:15:35;15.65;;;9.30;;
549;SDS011;20066;48.764;9.176;2022-10-04T01:18:11;16.52;;;9.10;;
549;SDS011;20066;48.764;9.176;2022-10-04T01:20:48;18.25;;;9.15;;
549;SDS011;20066;48.764;9.176;2022-10-04T01:23:34;21.58;;;9.52;;
549;SDS011;20066;48.764;9.176;2022-10-04T01:29:10;14.55;;;8.35;;
549;SDS011;20066;48.764;9.176;2022-10-04T01:31:40;19.25;;;8.80;;
549;SDS011;20066;48.764;9.176;2022-10-04T01:34:11;15.88;;;8.98;;
549;SDS011;20066;48.764;9.176;2022-10-04T01:36:41;15.88;;;9.68;;
549;SDS011;20066;48.764;9.176;2022-10-04T01:39:14;14.63;;;9.23;;
549;SDS011;20066;48.764;9.176;2022-10-04T01:41:44;17.58;;;8.85;;
549;SDS011;20066;48.764;9.176;2022-10-04T01:44:18;24.25;;;8.95;;
549;SDS011;20066;48.764;9.176;2022-10-04T01:46:51;23.75;;;9.60;;
549;SDS011;20066;48.764;9.176;2022-10-04T01:49:23;14.48;;;8.80;;
549;SDS011;20066;48.764;9.176;2022-10-04T01:51:55;15.38;;;9.25;;
549;SDS011;20066;48.764;9.176;2022-10-04T01:54:33;18.92;;;10.00;;
549;SDS011;20066;48.764;9.176;2022-10-04T01:57:04;15.15;;;8.57;;
549;SDS011;20066;48.764;9.176;2022-10-04T01:59:39;14.70;;;8.05;;
549;SDS011;20066;48.764;9.176;2022-10-04T02:02:16;14.07;;;8.55;;
549;SDS011;20066;48.764;9.176;2022-10-04T02:04:49;21.40;;;9.55;;
549;SDS011;20066;48.764;9.176;2022-10-04T02:07:20;12.77;;;8.35;;
549;SDS011;20066;48.764;9.176;2022-10-04T02:09:54;21.67;;;9.85;;
549;SDS011;20066;48.764;9.176;2022-10-04T02:12:24;14.18;;;8.80;;
549;SDS011;20066;48.764;9.176;2022-10-04T02:14:57;16.70;;;8.70;;
549;SDS011;20066;48.764;9.176;2022-10-04T02:17:27;16.08;;;8.55;;
549;SDS011;20066;48.764;9.176;2022-10-04T02:19:57;19.38;;;9.57;;
549;SDS011;20066;48.764;9.176;2022-10-04T02:22:27;17.42;;;9.15;;
549;SDS011;20066;48.764;9.176;2022-10-04T02:24:56;21.15;;;8.85;;
549;SDS011;20066;48.764;9.176;2022-10-04T02:27:25;13.40;;;8.43;;
549;SDS011;20066;48.764;9.176;2022-10-04T02:29:58;18.45;;;9.50;;
549;SDS011;20066;48.764;9.176;2022-10-04T02:32:28;12.73;;;8.15;;
549;SDS011;20066;48.764;9.176;2022-10-04T02:35:14;15.77;;;9.02;;
549;SDS011;20066;48.764;9.176;2022-10-04T02:37:43;14.48;;;8.50;;
549;SDS011;20066;48.764;9.176;2022-10-04T02:40:14;15.93;;;8.73;;
549;SDS011;20066;48.764;9.176;2022-10-04T02:42:46;13.73;;;9.07;;
549;SDS011;20066;48.764;9.176;2022-10-04T02:45:21;15.90;;;9.35;;
549;SDS011;20066;48.764;9.176;2022-10-04T02:47:56;15.25;;;8.45;;
549;SDS011;20066;48.764;9.176;2022-10-04T02:50:28;12.50;;;8.52;;
549;SDS011;20066;48.764;9.176;2022-10-04T02:53:02;16.38;;;9.02;;
549;SDS011;20066;48.764;9.176;2022-10-04T02:55:40;16.58;;;9.05;;
549;SDS011;20066;48.764;9.176;2022-10-04T02:58:09;16.45;;;9.20;;
549;SDS011;20066;48.764;9.176;2022-10-04T03:00:44;15.13;;;8.60;;
549;SDS011;20066;48.764;9.176;2022-10-04T03:03:16;14.15;;;9.10;;
549;SDS011;20066;48.764;9.176;2022-10-04T03:05:59;17.27;;;9.15;;
549;SDS011;20066;48.764;9.176;2022-10-04T03:08:30;14.80;;;10.13;;
549;SDS011;20066;48.764;9.176;2022-10-04T03:11:03;14.60;;;9.02;;
549;SDS011;20066;48.764;9.176;2022-10-04T03:13:32;14.35;;;8.90;;
549;SDS011;20066;48.764;9.176;2022-10-04T03:16:02;13.48;;;9.07;;
549;SDS011;20066;48.764;9.176;2022-10-04T03:18:30;16.55;;;9.57;;
549;SDS011;20066;48.764;9.176;2022-10-04T03:21:01;14.73;;;8.35;;
549;SDS011;20066;48.764;9.176;2022-10-04T03:23:31;16.17;;;9.43;;
549;SDS011;20066;48.764;9.176;2022-10-04T03:26:00;17.83;;;9.05;;
549;SDS011;20066;48.764;9.176;2022-10-04T03:28:40;26.38;;;8.95;;
549;SDS011;20066;48.764;9.176;2022-10-04T03:31:08;15.02;;;8.40;;
549;SDS011;20066;48.764;9.176;2022-10-04T03:33:37;13.02;;;8.27;;
549;SDS011;20066;48.764;9.176;2022-10-04T03:36:05;12.77;;;8.68;;
549;SDS011;20066;48.764;9.176;2022-10-04T03:38:33;14.00;;;8.65;;
549;SDS011;20066;48.764;9.176;2022-10-04T03:41:03;15.65;;;8.80;;
549;SDS011;20066;48.764;9.176;2022-10-04T03:43:32;16.90;;;8.85;;
549;SDS011;20066;48.764;9.176;2022-10-04T03:46:08;13.35;;;8.20;;
549;SDS011;20066;48.764;9.176;2022-10-04T03:48:38;16.38;;;9.02;;
549;SDS011;20066;48.764;9.176;2022-10-04T03:51:11;17.02;;;9.05;;
549;SDS011;20066;48.764;9.176;2022-10-04T03:53:42;14.95;;;8.85;;
549;SDS011;20066;48.764;9.176;2022-10-04T03:56:14;14.40;;;9.10;;
549;SDS011;20066;48.764;9.176;2022-10-04T03:58:45;16.45;;;9.23;;
549;SDS011;20066;48.764;9.176;2022-10-04T04:01:34;15.32;;;9.18;;
549;SDS011;20066;48.764;9.176;2022-10-04T04:04:10;18.05;;;9.02;;
549;SDS011;20066;48.764;9.176;2022-10-04T04:06:46;13.52;;;8.65;;
549;SDS011;20066;48.764;9.176;2022-10-04T04:09:19;17.30;;;9.48;;
549;SDS011;20066;48.764;9.176;2022-10-04T04:11:53;14.00;;;8.23;;
549;SDS011;20066;48.764;9.176;2022-10-04T04:14:25;16.27;;;8.63;;
549;SDS011;20066;48.764;9.176;2022-10-04T04:16:53;19.05;;;11.27;;
549;SDS011;20066;48.764;9.176;2022-10-04T04:20:02;15.75;;;10.93;;
549;SDS011;20066;48.764;9.176;2022-10-04T04:22:33;28.10;;;16.17;;
549;SDS011;20066;48.764;9.176;2022-10-04T04:25:03;14.73;;;8.65;;
549;SDS011;20066;48.764;9.176;2022-10-04T04:27:39;17.27;;;9.07;;
549;SDS011;20066;48.764;9.176;2022-10-04T04:30:11;13.68;;;8.23;;
549;SDS011;20066;48.764;9.176;2022-10-04T04:32:43;14.60;;;9.45;;
549;SDS011;20066;48.764;9.176;2022-10-04T04:35:21;13.82;;;8.38;;
549;SDS011;20066;48.764;9.176;2022-10-04T04:38:01;15.43;;;8.25;;
549;SDS011;20066;48.764;9.176;2022-10-04T04:40:31;19.40;;;8.30;;
549;SDS011;20066;48.764;9.176;2022-10-04T04:43:01;12.57;;;7.70;;
549;SDS011;20066;48.764;9.176;2022-10-04T04:45:29;13.35;;;8.88;;
549;SDS011;20066;48.764;9.176;2022-10-04T04:48:01;16.00;;;10.18;;
549;SDS011;20066;48.764;9.176;2022-10-04T04:50:31;15.35;;;8.50;;
549;SDS011;20066;48.764;9.176;2022-10-04T04:53:03;15.93;;;8.65;;
549;SDS011;20066;48.764;9.176;2022-10-04T04:55:35;14.38;;;8.93;;
549;SDS011;20066;48.764;9.176;2022-10-04T04:58:28;15.95;;;9.20;;
549;SDS011;20066;48.764;9.176;2022-10-04T05:01:01;13.70;;;8.10;;
549;SDS011;20066;48.764;9.176;2022-10-04T05:03:30;14.15;;;8.93;;
549;SDS011;20066;48.764;9.176;2022-10-04T05:05:59;16.23;;;8.63;;
549;SDS011;20066;48.764;9.176;2022-10-04T05:08:30;12.88;;;8.55;;
549;SDS011;20066;48.764;9.176;2022-10-04T05:11:09;16.08;;;8.23;;
549;SDS011;20066;48.764;9.176;2022-10-04T05:13:43;17.48;;;9.50;;
549;SDS011;20066;48.764;9.176;2022-10-04T05:16:20;15.50;;;8.10;;
549;SDS011;20066;48.764;9.176;2022-10-04T05:18:53;15.68;;;9.40;;
549;SDS011;20066;48.764;9.176;2022-10-04T05:21:26;17.80;;;10.00;;
549;SDS011;20066;48.764;9.176;2022-10-04T05:23:56;17.98;;;10.57;;
549;SDS011;20066;48.764;9.176;2022-10-04T05:26:26;18.27;;;8.52;;
549;SDS011;20066;48.764;9.176;2022-10-04T05:28:59;13.93;;;9.32;;
549;SDS011;20066;48.764;9.176;2022-10-04T05:31:34;14.15;;;8.50;;
549;SDS011;20066;48.764;9.176;2022-10-04T05:34:16;36.80;;;11.07;;
549;SDS011;20066;48.764;9.176;2022-10-04T05:36:57;30.50;;;10.25;;
549;SDS011;20066;48.764;9.176;2022-10-04T05:39:46;18.55;;;8.85;;
549;SDS011;20066;48.764;9.176;2022-10-04T05:42:21;15.75;;;8.25;;
549;SDS011;20066;48.764;9.176;2022-10-04T05:44:56;15.70;;;7.80;;
549;SDS011;20066;48.764;9.176;2022-10-04T05:47:25;13.27;;;7.88;;
549;SDS011;20066;48.764;9.176;2022-10-04T05:49:55;13.05;;;7.70;;
549;SDS011;20066;48.764;9.176;2022-10-04T05:52:26;11.38;;;7.45;;
549;SDS011;20066;48.764;9.176;2022-10-04T06:01:07;15.80;;;8.77;;
549;SDS011;20066;48.764;9.176;2022-10-04T06:06:53;14.57;;;7.50;;
549;SDS011;20066;48.764;9.176;2022-10-04T06:09:33;12.63;;;7.93;;
549;SDS011;20066;48.764;9.176;2022-10-04T06:12:16;23.65;;;7.80;;
549;SDS011;20066;48.764;9.176;2022-10-04T06:15:06;11.73;;;7.85;;
549;SDS011;20066;48.764;9.176;2022-10-04T06:17:53;14.98;;;7.47;;
549;SDS011;20066;48.764;9.176;2022-10-04T06:20:37;13.77;;;7.60;;
549;SDS011;20066;48.764;9.176;2022-10-04T06:23:20;17.83;;;8.10;;
549;SDS011;20066;48.764;9.176;2022-10-04T06:25:52;21.95;;;8.60;;
549;SDS011;20066;48.764;9.176;2022-10-04T06:28:24;13.75;;;8.30;;
549;SDS011;20066;48.764;9.176;2022-10-04T06:31:05;15.50;;;7.75;;
549;SDS011;20066;48.764;9.176;2022-10-04T06:34:02;20.45;;;8.65;;
549;SDS011;20066;48.764;9.176;2022-10-04T06:36:54;12.50;;;7.35;;
549;SDS011;20066;48.764;9.176;2022-10-04T06:39:52;15.38;;;7.65;;
549;SDS011;20066;48.764;9.176;2022-10-04T06:45:35;19.83;;;8.10;;
549;SDS011;20066;48.764;9.176;2022-10-04T06:48:24;12.82;;;7.68;;
549;SDS011;20066;48.764;9.176;2022-10-04T06:51:10;19.83;;;7.43;;
549;SDS011;20066;48.764;9.176;2022-10-04T06:53:50;10.98;;;6.95;;
549;SDS011;20066;48.764;9.176;2022-10-04T06:56:35;15.50;;;6.85;;
549;SDS011;20066;48.764;9.176;2022-10-04T06:59:18;12.60;;;7.20;;
549;SDS011;20066;48.764;9.176;2022-10-04T07:01:57;17.95;;;7.93;;
549;SDS011;20066;48.764;9.176;2022-10-04T07:04:30;13.05;;;7.00;;
549;SDS011;20066;48.764;9.176;2022-10-04T07:07:30;18.38;;;7.05;;
549;SDS011;20066;48.764;9.176;2022-10-04T07:10:15;18.50;;;7.00;;
549;SDS011;20066;48.764;9.176;2022-10-04T07:13:04;14.32;;;6.70;;
549;SDS011;20066;48.764;9.176;2022-10-04T07:15:44;12.80;;;7.07;;
549;SDS011;20066;48.764;9.176;2022-10-04T07:18:19;15.23;;;6.93;;
549;SDS011;20066;48.764;9.176;2022-10-04T07:20:51;14.20;;;6.35;;
549;SDS011;20066;48.764;9.176;2022-10-04T07:23:29;15.57;;;7.85;;
549;SDS011;20066;48.764;9.176;2022-10-04T07:26:00;12.95;;;6.78;;
549;SDS011;20066;48.764;9.176;2022-10-04T07:28:33;15.82;;;6.85;;
549;SDS011;20066;48.764;9.176;2022-10-04T07:31:25;17.70;;;6.68;;
549;SDS011;20066;48.764;9.176;2022-10-04T07:33:56;14.68;;;6.10;;
549;SDS011;20066;48.764;9.176;2022-10-04T07:36:28;15.63;;;6.90;;
549;SDS011;20066;48.764;9.176;2022-10-04T07:39:09;12.65;;;6.57;;
549;SDS011;20066;48.764;9.176;2022-10-04T07:41:42;16.00;;;8.50;;
549;SDS011;20066;48.764;9.176;2022-10-04T07:44:16;13.50;;;7.13;;
549;SDS011;20066;48.764;9.176;2022-10-04T07:46:53;15.70;;;7.55;;
549;SDS011;20066;48.764;9.176;2022-10-04T07:49:25;19.42;;;8.50;;
549;SDS011;20066;48.764;9.176;2022-10-04T07:55:01;17.00;;;8.50;;
549;SDS011;20066;48.764;9.176;2022-10-04T07:57:41;21.88;;;8.23;;
549;SDS011;20066;48.764;9.176;2022-10-04T08:00:17;18.17;;;8.88;;
549;SDS011;20066;48.764;9.176;2022-10-04T08:02:51;17.42;;;7.95;;
549;SDS011;20066;48.764;9.176;2022-10-04T08:05:32;16.27;;;8.00;;
549;SDS011;20066;48.764;9.176;2022-10-04T08:08:08;19.37;;;8.40;;
549;SDS011;20066;48.764;9.176;2022-10-04T08:10:52;13.23;;;7.90;;
549;SDS011;20066;48.764;9.176;2022-10-04T08:13:35;24.40;;;8.53;;
549;SDS011;20066;48.764;9.176;2022-10-04T08:16:12;15.95;;;7.80;;
549;SDS011;20066;48.764;9.176;2022-10-04T08:18:56;16.97;;;8.90;;
549;SDS011;20066;48.764;9.176;2022-10-04T08:21:37;14.27;;;7.20;;
549;SDS011;20066;48.764;9.176;2022-10-04T08:24:14;14.47;;;7.90;;
549;SDS011;20066;48.764;9.176;2022-10-04T08:26:55;14.67;;;7.90;;
549;SDS011;20066;48.764;9.176;2022-10-04T08:29:50;16.47;;;8.47;;
549;SDS011;20066;48.764;9.176;2022-10-04T08:32:32;17.43;;;7.83;;
549;SDS011;20066;48.764;9.176;2022-10-04T08:35:27;13.80;;;7.00;;
549;SDS011;20066;48.764;9.176;2022-10-04T08:38:23;15.53;;;6.47;;
549;SDS011;20066;48.764;9.176;2022-10-04T08:41:09;15.27;;;7.00;;
549;SDS011;20066;48.764;9.176;2022-10-04T08:46:57;17.03;;;7.20;;
549;SDS011;20066;48.764;9.176;2022-10-04T08:49:50;11.00;;;6.33;;
549;SDS011;20066;48.764;9.176;2022-10-04T08:53:01;12.43;;;6.20;;
549;SDS011;20066;48.764;9.176;2022-10-04T08:55:54;16.80;;;6.20;;
549;SDS011;20066;48.764;9.176;2022-10-04T08:58:39;10.73;;;5.20;;
549;SDS011;20066;48.764;9.176;2022-10-04T09:01:37;14.83;;;5.60;;
549;SDS011;20066;48.764;9.176;2022-10-04T09:04:32;16.33;;;6.00;;
549;SDS011;20066;48.764;9.176;2022-10-04T09:07:34;17.73;;;7.60;;
549;SDS011;20066;48.764;9.176;2022-10-04T09:16:15;14.70;;;7.40;;
549;SDS011;20066;48.764;9.176;2022-10-04T09:18:50;12.90;;;6.20;;
549;SDS011;20066;48.764;9.176;2022-10-04T09:21:26;13.00;;;6.23;;
549;SDS011;20066;48.764;9.176;2022-10-04T09:24:17;10.80;;;6.60;;
549;SDS011;20066;48.764;9.176;2022-10-04T09:26:58;12.43;;;6.00;;
549;SDS011;20066;48.764;9.176;2022-10-04T09:29:45;13.50;;;5.90;;
549;SDS011;20066;48.764;9.176;2022-10-04T09:32:39;12.57;;;5.73;;
549;SDS011;20066;48.764;9.176;2022-10-04T09:35:50;15.03;;;4.87;;
549;SDS011;20066;48.764;9.176;2022-10-04T09:38:40;8.80;;;4.20;;
549;SDS011;20066;48.764;9.176;2022-10-04T09:41:53;10.40;;;4.00;;
549;SDS011;20066;48.764;9.176;2022-10-04T09:47:42;14.87;;;3.90;;
549;SDS011;20066;48.764;9.176;2022-10-04T09:53:10;6.37;;;3.47;;
549;SDS011;20066;48.764;9.176;2022-10-04T09:56:07;7.83;;;3.90;;
549;SDS011;20066;48.764;9.176;2022-10-04T10:05:13;7.20;;;3.00;;
549;SDS011;20066;48.764;9.176;2022-10-04T10:07:59;8.10;;;3.13;;
549;SDS011;20066;48.764;9.176;2022-10-04T10:10:42;9.50;;;4.07;;
549;SDS011;20066;48.764;9.176;2022-10-04T10:13:42;6.97;;;3.30;;
549;SDS011;20066;48.764;9.176;2022-10-04T10:16:32;8.57;;;3.80;;
549;SDS011;20066;48.764;9.176;2022-10-04T10:19:15;7.53;;;3.27;;
549;SDS011;20066;48.764;9.176;2022-10-04T10:22:11;5.50;;;3.20;;
549;SDS011;20066;48.764;9.176;2022-10-04T10:25:01;9.60;;;4.90;;
549;SDS011;20066;48.764;9.176;2022-10-04T10:27:47;6.93;;;3.23;;
549;SDS011;20066;48.764;9.176;2022-10-04T10:30:25;5.70;;;3.10;;
549;SDS011;20066;48.764;9.176;2022-10-04T10:36:04;7.03;;;3.20;;
549;SDS011;20066;48.764;9.176;2022-10-04T10:39:03;6.53;;;3.60;;
549;SDS011;20066;48.764;9.176;2022-10-04T10:41:55;6.97;;;3.67;;
549;SDS011;20066;48.764;9.176;2022-10-04T10:44:40;8.00;;;3.20;;
549;SDS011;20066;48.764;9.176;2022-10-04T10:47:25;5.93;;;2.80;;
549;SDS011;20066;48.764;9.176;2022-10-04T10:56:44;7.50;;;3.43;;
549;SDS011;20066;48.764;9.176;2022-10-04T11:24:22;8.03;;;3.07;;
549;SDS011;20066;48.764;9.176;2022-10-04T11:27:14;6.00;;;3.37;;
549;SDS011;20066;48.764;9.176;2022-10-04T11:36:05;5.57;;;3.70;;
549;SDS011;20066;48.764;9.176;2022-10-04T11:39:03;12.17;;;3.87;;
549;SDS011;20066;48.764;9.176;2022-10-04T11:41:59;10.57;;;3.40;;
549;SDS011;20066;48.764;9.176;2022-10-04T11:48:00;9.43;;;3.63;;
549;SDS011;20066;48.764;9.176;2022-10-04T11:50:43;9.00;;;3.40;;
549;SDS011;20066;48.764;9.176;2022-10-04T11:53:38;8.87;;;3.20;;
549;SDS011;20066;48.764;9.176;2022-10-04T11:56:36;12.80;;;3.70;;
549;SDS011;20066;48.764;9.176;2022-10-04T11:59:18;8.03;;;3.27;;
549;SDS011;20066;48.764;9.176;2022-10-04T12:02:03;7.23;;;3.50;;
549;SDS011;20066;48.764;9.176;2022-10-04T12:04:57;9.70;;;3.80;;
549;SDS011;20066;48.764;9.176;2022-10-04T12:07:42;5.47;;;3.30;;
549;SDS011;20066;48.764;9.176;2022-10-04T12:10:19;6.37;;;3.47;;
549;SDS011;20066;48.764;9.176;2022-10-04T12:13:08;6.60;;;3.40;;
549;SDS011;20066;48.764;9.176;2022-10-04T12:16:03;7.77;;;3.80;;
549;SDS011;20066;48.764;9.176;2022-10-04T12:21:52;5.80;;;3.23;;
549;SDS011;20066;48.764;9.176;2022-10-04T12:24:36;8.47;;;4.20;;
549;SDS011;20066;48.764;9.176;2022-10-04T12:27:33;7.87;;;3.30;;
549;SDS011;20066;48.764;9.176;2022-10-04T12:33:03;8.83;;;3.50;;
549;SDS011;20066;48.764;9.176;2022-10-04T12:35:43;5.40;;;3.17;;
549;SDS011;20066;48.764;9.176;2022-10-04T12:38:32;7.00;;;2.97;;
549;SDS011;20066;48.764;9.176;2022-10-04T12:41:15;9.13;;;3.23;;
549;SDS011;20066;48.764;9.176;2022-10-04T12:43:57;6.40;;;3.00;;
549;SDS011;20066;48.764;9.176;2022-10-04T12:46:38;7.10;;;3.40;;
549;SDS011;20066;48.764;9.176;2022-10-04T12:49:20;7.13;;;3.10;;
549;SDS011;20066;48.764;9.176;2022-10-04T12:52:00;6.33;;;2.53;;
549;SDS011;20066;48.764;9.176;2022-10-04T12:54:38;4.60;;;2.87;;
549;SDS011;20066;48.764;9.176;2022-10-04T13:00:14;5.73;;;2.53;;
549;SDS011;20066;48.764;9.176;2022-10-04T13:02:54;5.83;;;2.53;;
549;SDS011;20066;48.764;9.176;2022-10-04T13:05:36;5.77;;;2.80;;
549;SDS011;20066;48.764;9.176;2022-10-04T13:08:19;6.27;;;2.40;;
549;SDS011;20066;48.764;9.176;2022-10-04T13:11:03;7.87;;;2.87;;
549;SDS011;20066;48.764;9.176;2022-10-04T13:13:58;4.97;;;2.50;;
549;SDS011;20066;48.764;9.176;2022-10-04T13:16:43;5.60;;;2.87;;
549;SDS011;20066;48.764;9.176;2022-10-04T13:19:41;5.80;;;2.53;;
549;SDS011;20066;48.764;9.176;2022-10-04T13:22:20;4.93;;;2.60;;
549;SDS011;20066;48.764;9.176;2022-10-04T13:25:23;8.33;;;2.60;;
549;SDS011;20066;48.764;9.176;2022-10-04T13:28:02;4.43;;;2.30;;
549;SDS011;20066;48.764;9.176;2022-10-04T13:30:41;3.97;;;2.40;;
549;SDS011;20066;48.764;9.176;2022-10-04T13:33:17;11.30;;;2.67;;
549;SDS011;20066;48.764;9.176;2022-10-04T13:35:54;5.83;;;2.67;;
549;SDS011;20066;48.764;9.176;2022-10-04T13:38:45;8.47;;;2.87;;
549;SDS011;20066;48.764;9.176;2022-10-04T13:41:42;8.80;;;2.60;;
549;SDS011;20066;48.764;9.176;2022-10-04T13:44:31;4.33;;;2.80;;
549;SDS011;20066;48.764;9.176;2022-10-04T13:47:14;6.10;;;2.50;;
549;SDS011;20066;48.764;9.176;2022-10-04T13:50:02;6.67;;;3.03;;
549;SDS011;20066;48.764;9.176;2022-10-04T13:52:52;7.70;;;3.20;;
549;SDS011;20066;48.764;9.176;2022-10-04T13:55:46;6.77;;;3.23;;
549;SDS011;20066;48.764;9.176;2022-10-04T13:58:40;11.40;;;3.50;;
549;SDS011;20066;48.764;9.176;2022-10-04T14:01:24;6.83;;;3.57;;
549;SDS011;20066;48.764;9.176;2022-10-04T14:04:23;7.37;;;3.17;;
549;SDS011;20066;48.764;9.176;2022-10-04T14:10:12;7.53;;;3.20;;
549;SDS011;20066;48.764;9.176;2022-10-04T14:19:21;5.93;;;2.67;;
549;SDS011;20066;48.764;9.176;2022-10-04T14:22:29;5.80;;;2.77;;
549;SDS011;20066;48.764;9.176;2022-10-04T14:28:39;7.43;;;3.27;;
549;SDS011;20066;48.764;9.176;2022-10-04T14:31:31;6.73;;;2.80;;
549;SDS011;20066;48.764;9.176;2022-10-04T14:34:26;8.90;;;3.53;;
549;SDS011;20066;48.764;9.176;2022-10-04T14:37:22;5.83;;;2.80;;
549;SDS011;20066;48.764;9.176;2022-10-04T14:43:32;4.23;;;2.13;;
549;SDS011;20066;48.764;9.176;2022-10-04T14:46:26;7.80;;;2.83;;
549;SDS011;20066;48.764;9.176;2022-10-04T14:49:13;5.80;;;2.60;;
549;SDS011;20066;48.764;9.176;2022-10-04T14:51:54;14.47;;;2.93;;
549;SDS011;20066;48.764;9.176;2022-10-04T14:54:35;6.80;;;2.93;;
549;SDS011;20066;48.764;9.176;2022-10-04T14:57:09;4.50;;;2.50;;
549;SDS011;20066;48.764;9.176;2022-10-04T15:02:48;4.97;;;2.70;;
549;SDS011;20066;48.764;9.176;2022-10-04T15:08:38;10.73;;;4.80;;
549;SDS011;20066;48.764;9.176;2022-10-04T15:11:35;8.43;;;3.30;;
549;SDS011;20066;48.764;9.176;2022-10-04T15:14:19;7.50;;;3.10;;
549;SDS011;20066;48.764;9.176;2022-10-04T15:16:57;7.50;;;3.00;;
549;SDS011;20066;48.764;9.176;2022-10-04T15:19:28;6.57;;;2.90;;
549;SDS011;20066;48.764;9.176;2022-10-04T15:22:01;4.33;;;2.43;;
549;SDS011;20066;48.764;9.176;2022-10-04T15:24:44;11.80;;;2.83;;
549;SDS011;20066;48.764;9.176;2022-10-04T15:30:16;13.33;;;3.23;;
549;SDS011;20066;48.764;9.176;2022-10-04T15:32:55;6.00;;;3.13;;
549;SDS011;20066;48.764;9.176;2022-10-04T15:35:45;6.63;;;2.90;;
549;SDS011;20066;48.764;9.176;2022-10-04T15:38:20;7.90;;;2.80;;
549;SDS011;20066;48.764;9.176;2022-10-04T15:41:00;8.20;;;2.70;;
549;SDS011;20066;48.764;9.176;2022-10-04T15:43:33;7.80;;;2.80;;
549;SDS011;20066;48.764;9.176;2022-10-04T15:49:11;4.30;;;2.93;;
549;SDS011;20066;48.764;9.176;2022-10-04T15:55:08;4.20;;;2.90;;
549;SDS011;20066;48.764;9.176;2022-10-04T15:57:55;6.97;;;3.13;;
549;SDS011;20066;48.764;9.176;2022-10-04T16:00:48;7.10;;;3.27;;
549;SDS011;20066;48.764;9.176;2022-10-04T16:03:30;12.00;;;3.57;;
549;SDS011;20066;48.764;9.176;2022-10-04T16:06:08;6.60;;;3.60;;
549;SDS011;20066;48.764;9.176;2022-10-04T16:09:02;9.23;;;3.33;;
549;SDS011;20066;48.764;9.176;2022-10-04T16:11:54;6.33;;;3.10;;
549;SDS011;20066;48.764;9.176;2022-10-04T16:23:34;9.13;;;3.63;;
549;SDS011;20066;48.764;9.176;2022-10-04T16:26:04;8.17;;;3.10;;
549;SDS011;20066;48.764;9.176;2022-10-04T16:31:52;9.73;;;2.80;;
549;SDS011;20066;48.764;9.176;2022-10-04T16:34:31;28.67;;;4.10;;
549;SDS011;20066;48.764;9.176;2022-10-04T16:40:14;11.60;;;3.10;;
549;SDS011;20066;48.764;9.176;2022-10-04T16:42:53;7.43;;;3.47;;
549;SDS011;20066;48.764;9.176;2022-10-04T16:45:37;6.67;;;3.47;;
549;SDS011;20066;48.764;9.176;2022-10-04T16:48:19;4.10;;;2.67;;
549;SDS011;20066;48.764;9.176;2022-10-04T16:50:55;6.57;;;2.97;;
549;SDS011;20066;48.764;9.176;2022-10-04T16:53:55;5.33;;;3.10;;
549;SDS011;20066;48.764;9.176;2022-10-04T16:57:05;12.27;;;3.53;;
549;SDS011;20066;48.764;9.176;2022-10-04T16:59:46;7.67;;;3.17;;
549;SDS011;20066;48.764;9.176;2022-10-04T17:05:28;6.00;;;3.30;;
549;SDS011;20066;48.764;9.176;2022-10-04T17:08:28;11.87;;;4.27;;
549;SDS011;20066;48.764;9.176;2022-10-04T17:17:41;8.27;;;3.67;;
549;SDS011;20066;48.764;9.176;2022-10-04T17:20:15;13.93;;;4.00;;
549;SDS011;20066;48.764;9.176;2022-10-04T17:22:56;8.97;;;3.97;;
549;SDS011;20066;48.764;9.176;2022-10-04T17:25:35;6.33;;;4.27;;
549;SDS011;20066;48.764;9.176;2022-10-04T17:28:15;9.53;;;4.00;;
549;SDS011;20066;48.764;9.176;2022-10-04T17:30:57;10.03;;;3.73;;
549;SDS011;20066;48.764;9.176;2022-10-04T17:33:38;7.13;;;2.93;;
549;SDS011;20066;48.764;9.176;2022-10-04T17:36:32;9.30;;;3.40;;
549;SDS011;20066;48.764;9.176;2022-10-04T17:39:11;19.50;;;3.60;;
549;SDS011;20066;48.764;9.176;2022-10-04T17:41:51;6.90;;;3.53;;
549;SDS011;20066;48.764;9.176;2022-10-04T17:44:30;8.87;;;4.40;;
549;SDS011;20066;48.764;9.176;2022-10-04T17:47:25;7.87;;;4.23;;
549;SDS011;20066;48.764;9.176;2022-10-04T17:50:24;8.30;;;4.73;;
549;SDS011;20066;48.764;9.176;2022-10-04T17:53:18;15.83;;;5.53;;
549;SDS011;20066;48.764;9.176;2022-10-04T17:56:07;7.63;;;4.13;;
549;SDS011;20066;48.764;9.176;2022-10-04T17:58:41;8.17;;;4.77;;
549;SDS011;20066;48.764;9.176;2022-10-04T18:01:16;11.13;;;4.50;;
549;SDS011;20066;48.764;9.176;2022-10-04T18:03:55;8.37;;;4.73;;
549;SDS011;20066;48.764;9.176;2022-10-04T18:06:28;7.10;;;4.37;;
549;SDS011;20066;48.764;9.176;2022-10-04T18:09:01;8.40;;;5.20;;
549;SDS011;20066;48.764;9.176;2022-10-04T18:11:39;9.20;;;5.40;;
549;SDS011;20066;48.764;9.176;2022-10-04T18:14:13;16.80;;;6.53;;
549;SDS011;20066;48.764;9.176;2022-10-04T18:17:11;8.13;;;5.60;;
549;SDS011;20066;48.764;9.176;2022-10-04T18:19:50;10.67;;;5.50;;
549;SDS011;20066;48.764;9.176;2022-10-04T18:22:28;11.83;;;5.20;;
549;SDS011;20066;48.764;9.176;2022-10-04T18:25:11;10.63;;;5.60;;
549;SDS011;20066;48.764;9.176;2022-10-04T18:27:49;10.50;;;5.00;;
549;SDS011;20066;48.764;9.176;2022-10-04T18:30:19;11.10;;;6.10;;
549;SDS011;20066;48.764;9.176;2022-10-04T18:32:50;13.43;;;5.50;;
549;SDS011;20066;48.764;9.176;2022-10-04T18:35:21;11.70;;;6.17;;
549;SDS011;20066;48.764;9.176;2022-10-04T18:37:55;10.07;;;5.60;;
549;SDS011;20066;48.764;9.176;2022-10-04T18:40:25;15.00;;;5.80;;
549;SDS011;20066;48.764;9.176;2022-10-04T18:42:58;12.50;;;6.27;;
549;SDS011;20066;48.764;9.176;2022-10-04T18:45:27;10.23;;;6.00;;
549;SDS011;20066;48.764;9.176;2022-10-04T18:47:59;14.17;;;5.43;;
549;SDS011;20066;48.764;9.176;2022-10-04T18:50:30;12.37;;;5.73;;
549;SDS011;20066;48.764;9.176;2022-10-04T18:53:09;16.77;;;5.80;;
549;SDS011;20066;48.764;9.176;2022-10-04T18:55:54;15.83;;;5.63;;
549;SDS011;20066;48.764;9.176;2022-10-04T18:58:32;19.13;;;5.83;;
549;SDS011;20066;48.764;9.176;2022-10-04T19:01:32;10.60;;;5.60;;
549;SDS011;20066;48.764;9.176;2022-10-04T19:04:33;15.10;;;5.57;;